createdAt,value
2022-08-26T00:00:53.338Z,6.80
2022-08-26T00:03:23.688Z,7.00
2022-08-26T00:05:54.450Z,8.07
2022-08-26T00:08:24.423Z,7.07
2022-08-26T00:10:52.974Z,9.90
2022-08-26T00:13:22.369Z,7.23
2022-08-26T00:15:51.387Z,8.03
2022-08-26T00:18:22.282Z,8.33
2022-08-26T00:20:54.575Z,8.13
2022-08-26T00:23:24.702Z,7.77
2022-08-26T00:25:57.409Z,7.40
2022-08-26T00:28:26.291Z,8.00
2022-08-26T00:30:55.273Z,7.50
2022-08-26T00:33:24.342Z,8.67
2022-08-26T00:35:52.939Z,6.80
2022-08-26T00:38:22.967Z,7.70
2022-08-26T00:40:55.253Z,7.90
2022-08-26T00:43:26.379Z,8.40
2022-08-26T00:45:59.339Z,10.93
2022-08-26T00:48:31.969Z,9.10
2022-08-26T00:51:04.443Z,10.00
2022-08-26T00:53:38.113Z,8.70
2022-08-26T00:56:17.021Z,7.90
2022-08-26T00:58:48.133Z,9.70
2022-08-26T01:01:18.155Z,9.13
2022-08-26T01:03:48.416Z,8.63
2022-08-26T01:06:17.346Z,8.33
2022-08-26T01:08:45.774Z,7.63
2022-08-26T01:11:16.632Z,7.77
2022-08-26T01:13:47.575Z,9.17
2022-08-26T01:16:17.362Z,8.07
2022-08-26T01:18:46.970Z,7.93
2022-08-26T01:21:22.922Z,7.97
2022-08-26T01:23:57.704Z,8.60
2022-08-26T01:26:31.366Z,8.10
2022-08-26T01:29:03.845Z,7.87
2022-08-26T01:31:37.586Z,7.90
2022-08-26T01:34:13.601Z,8.37
2022-08-26T01:36:42.717Z,8.37
2022-08-26T01:39:16.713Z,8.20
2022-08-26T01:41:47.442Z,9.17
2022-08-26T01:44:27.403Z,8.10
2022-08-26T01:46:57.894Z,8.13
2022-08-26T01:49:28.002Z,8.47
2022-08-26T01:52:01.718Z,8.00
2022-08-26T01:54:34.133Z,9.70
2022-08-26T01:57:03.336Z,8.63
2022-08-26T01:59:32.120Z,9.03
2022-08-26T02:02:00.742Z,7.60
2022-08-26T02:04:33.555Z,9.00
2022-08-26T02:07:06.047Z,8.73
2022-08-26T02:09:41.434Z,8.10
2022-08-26T02:12:12.086Z,9.87
2022-08-26T02:14:44.531Z,7.77
2022-08-26T02:17:13.510Z,8.33
2022-08-26T02:19:46.482Z,8.00
2022-08-26T02:22:19.120Z,8.07
2022-08-26T02:24:51.677Z,8.47
2022-08-26T02:27:23.809Z,7.50
2022-08-26T02:29:56.262Z,8.20
2022-08-26T02:32:24.806Z,8.60
2022-08-26T02:34:53.334Z,7.93
2022-08-26T02:37:23.041Z,8.00
2022-08-26T02:39:53.036Z,7.80
2022-08-26T02:42:21.733Z,8.10
2022-08-26T02:44:50.281Z,8.60
2022-08-26T02:47:18.926Z,8.73
2022-08-26T02:49:47.809Z,8.70
2022-08-26T02:52:17.022Z,8.70
2022-08-26T02:54:45.624Z,8.57
2022-08-26T02:57:15.648Z,9.33
2022-08-26T02:59:44.217Z,9.10
2022-08-26T03:02:13.117Z,9.63
2022-08-26T03:04:57.744Z,10.13
2022-08-26T03:07:32.120Z,9.63
2022-08-26T03:10:00.830Z,9.03
2022-08-26T03:12:30.707Z,9.30
2022-08-26T03:15:00.028Z,8.53
2022-08-26T03:17:29.123Z,10.07
2022-08-26T03:19:58.421Z,8.77
2022-08-26T03:22:27.712Z,8.93
2022-08-26T03:24:56.356Z,8.47
2022-08-26T03:27:26.431Z,8.10
2022-08-26T03:30:15.343Z,11.23
2022-08-26T03:32:44.626Z,9.00
2022-08-26T03:35:13.458Z,8.33
2022-08-26T03:37:42.766Z,11.67
2022-08-26T03:40:12.334Z,8.07
2022-08-26T03:42:45.296Z,8.70
2022-08-26T03:45:16.599Z,9.00
2022-08-26T03:47:45.975Z,8.37
2022-08-26T03:50:22.879Z,8.67
2022-08-26T03:52:54.754Z,9.37
2022-08-26T03:55:26.966Z,8.37
2022-08-26T03:57:56.438Z,8.37
2022-08-26T04:00:27.585Z,8.23
2022-08-26T04:02:56.154Z,8.13
2022-08-26T04:05:25.385Z,8.10
2022-08-26T04:07:54.205Z,7.73
2022-08-26T04:10:28.544Z,8.07
2022-08-26T04:13:00.717Z,8.90
2022-08-26T04:15:30.743Z,8.43
2022-08-26T04:17:59.294Z,8.87
2022-08-26T04:20:28.601Z,8.40
2022-08-26T04:22:57.128Z,8.30
2022-08-26T04:25:25.634Z,8.47
2022-08-26T04:27:58.395Z,9.33
2022-08-26T04:30:27.025Z,11.33
2022-08-26T04:32:56.814Z,8.40
2022-08-26T04:35:26.365Z,9.27
2022-08-26T04:37:55.629Z,9.23
2022-08-26T04:40:24.809Z,8.17
2022-08-26T04:42:54.399Z,10.23
2022-08-26T04:45:23.079Z,9.93
2022-08-26T04:47:56.843Z,9.23
2022-08-26T04:50:27.093Z,8.23
2022-08-26T04:52:56.490Z,10.83
2022-08-26T04:55:38.605Z,9.90
2022-08-26T04:58:10.146Z,8.57
2022-08-26T05:00:40.253Z,8.10
2022-08-26T05:03:10.824Z,8.10
2022-08-26T05:05:41.384Z,8.23
2022-08-26T05:08:11.427Z,7.60
2022-08-26T05:10:44.669Z,8.20
2022-08-26T05:13:15.462Z,8.70
2022-08-26T05:15:45.839Z,8.40
2022-08-26T05:18:18.150Z,8.40
2022-08-26T05:20:54.422Z,8.43
2022-08-26T05:23:24.970Z,8.10
2022-08-26T05:25:59.169Z,10.17
2022-08-26T05:28:29.571Z,10.27
2022-08-26T05:30:58.346Z,8.70
2022-08-26T05:33:29.531Z,8.97
2022-08-26T05:35:58.055Z,8.40
2022-08-26T05:38:30.128Z,8.87
2022-08-26T05:40:59.090Z,9.13
2022-08-26T05:43:29.148Z,8.47
2022-08-26T05:46:06.830Z,8.83
2022-08-26T05:48:36.782Z,9.33
2022-08-26T05:51:08.682Z,8.47
2022-08-26T05:53:38.657Z,9.83
2022-08-26T05:56:08.308Z,8.93
2022-08-26T05:58:38.781Z,8.70
2022-08-26T06:01:10.911Z,9.30
2022-08-26T06:03:47.756Z,8.80
2022-08-26T06:06:21.502Z,9.27
2022-08-26T06:08:57.610Z,9.40
2022-08-26T06:11:28.030Z,12.10
2022-08-26T06:14:03.645Z,8.60
2022-08-26T06:16:34.873Z,9.83
2022-08-26T06:19:10.532Z,9.23
2022-08-26T06:21:41.876Z,9.97
2022-08-26T06:24:31.053Z,11.23
2022-08-26T06:27:01.776Z,10.20
2022-08-26T06:29:33.168Z,11.10
2022-08-26T06:32:02.755Z,9.10
2022-08-26T06:34:32.972Z,8.33
2022-08-26T06:37:03.594Z,11.37
2022-08-26T06:39:33.002Z,9.30
2022-08-26T06:42:03.063Z,12.02
2022-08-26T06:44:35.653Z,8.30
2022-08-26T06:47:04.231Z,8.68
2022-08-26T06:49:34.665Z,8.68
2022-08-26T06:52:03.367Z,7.80
2022-08-26T06:54:32.653Z,7.45
2022-08-26T06:57:02.179Z,7.55
2022-08-26T06:59:31.600Z,8.02
2022-08-26T07:02:00.391Z,6.72
2022-08-26T07:04:30.903Z,8.20
2022-08-26T07:07:01.030Z,6.97
2022-08-26T07:09:33.238Z,7.93
2022-08-26T07:12:01.922Z,7.28
2022-08-26T07:14:32.010Z,7.35
2022-08-26T07:17:01.509Z,8.20
2022-08-26T07:19:31.604Z,6.85
2022-08-26T07:22:04.457Z,6.32
2022-08-26T07:24:35.120Z,7.00
2022-08-26T07:27:05.801Z,8.50
2022-08-26T07:29:34.947Z,6.38
2022-08-26T07:32:04.537Z,7.88
2022-08-26T07:34:33.564Z,6.95
2022-08-26T07:37:03.503Z,10.43
2022-08-26T07:39:32.863Z,6.95
2022-08-26T07:42:07.771Z,9.68
2022-08-26T07:44:36.878Z,9.15
2022-08-26T07:47:24.556Z,8.35
2022-08-26T07:49:55.538Z,8.57
2022-08-26T07:52:29.595Z,11.80
2022-08-26T07:54:59.803Z,10.57
2022-08-26T07:57:29.572Z,10.77
2022-08-26T07:59:58.870Z,9.35
2022-08-26T08:02:29.187Z,8.52
2022-08-26T08:04:58.640Z,9.80
2022-08-26T08:07:38.585Z,9.60
2022-08-26T08:10:15.798Z,11.10
2022-08-26T08:12:44.638Z,9.07
2022-08-26T08:15:13.902Z,10.05
2022-08-26T08:17:43.002Z,9.00
2022-08-26T08:20:13.534Z,10.88
2022-08-26T08:22:44.772Z,10.13
2022-08-26T08:25:13.700Z,8.88
2022-08-26T08:27:45.214Z,9.10
2022-08-26T08:30:15.567Z,11.05
2022-08-26T08:32:52.647Z,14.43
2022-08-26T08:35:22.794Z,8.70
2022-08-26T08:37:54.871Z,10.82
2022-08-26T08:40:26.779Z,7.50
2022-08-26T08:43:00.718Z,6.80
2022-08-26T08:45:36.995Z,7.15
2022-08-26T08:48:11.835Z,10.05
2022-08-26T08:50:46.112Z,5.90
2022-08-26T08:53:20.533Z,6.40
2022-08-26T08:55:56.741Z,7.10
2022-08-26T08:58:32.381Z,6.78
2022-08-26T09:01:05.280Z,6.68
2022-08-26T09:03:44.214Z,8.65
2022-08-26T09:06:18.907Z,6.50
2022-08-26T09:08:51.858Z,6.32
2022-08-26T09:11:21.730Z,5.97
2022-08-26T09:13:54.175Z,10.43
2022-08-26T09:16:28.814Z,7.07
2022-08-26T09:19:07.129Z,10.32
2022-08-26T09:21:36.438Z,6.32
2022-08-26T09:24:07.629Z,8.60
2022-08-26T09:26:48.089Z,5.72
2022-08-26T09:29:23.530Z,6.53
2022-08-26T09:31:53.430Z,9.50
2022-08-26T09:34:25.702Z,6.07
2022-08-26T09:36:55.786Z,6.28
2022-08-26T09:39:33.542Z,5.15
2022-08-26T09:42:09.715Z,4.50
2022-08-26T09:44:54.717Z,9.32
2022-08-26T09:47:28.066Z,6.57
2022-08-26T09:50:04.802Z,6.07
2022-08-26T09:52:40.328Z,6.45
2022-08-26T09:55:16.767Z,7.35
2022-08-26T09:57:48.712Z,6.00
2022-08-26T10:00:27.705Z,6.55
2022-08-26T10:02:58.129Z,6.93
2022-08-26T10:05:44.732Z,5.13
2022-08-26T10:08:24.605Z,5.82
2022-08-26T10:10:56.328Z,5.97
2022-08-26T10:13:31.334Z,5.53
2022-08-26T10:16:15.587Z,4.68
2022-08-26T10:18:48.900Z,5.68
2022-08-26T10:21:25.650Z,6.15
2022-08-26T10:23:57.931Z,6.97
2022-08-26T10:26:36.414Z,5.90
2022-08-26T10:29:11.376Z,6.63
2022-08-26T10:31:43.473Z,5.50
2022-08-26T10:34:13.957Z,5.75
2022-08-26T10:37:14.525Z,5.72
2022-08-26T10:39:55.240Z,6.60
2022-08-26T10:42:35.519Z,7.40
2022-08-26T10:45:11.892Z,5.47
2022-08-26T10:47:48.840Z,9.73
2022-08-26T10:50:18.333Z,6.90
2022-08-26T10:53:00.282Z,5.20
2022-08-26T10:55:35.615Z,7.30
2022-08-26T10:58:31.326Z,6.25
2022-08-26T11:01:23.974Z,6.13
2022-08-26T11:04:00.473Z,6.85
2022-08-26T11:06:31.448Z,5.68
2022-08-26T11:09:02.216Z,6.70
2022-08-26T11:11:51.244Z,7.13
2022-08-26T11:14:41.055Z,5.90
2022-08-26T11:17:57.204Z,4.82
2022-08-26T11:20:41.509Z,10.38
2022-08-26T11:23:40.497Z,6.72
2022-08-26T11:26:32.804Z,5.07
2022-08-26T11:29:12.331Z,6.07
2022-08-26T11:31:57.251Z,5.55
2022-08-26T11:34:57.883Z,4.25
2022-08-26T11:37:33.660Z,4.45
2022-08-26T11:40:05.221Z,4.35
2022-08-26T11:42:42.606Z,4.50
2022-08-26T11:45:20.093Z,4.72
2022-08-26T11:47:50.201Z,4.18
2022-08-26T11:50:23.524Z,5.70
2022-08-26T11:52:54.259Z,4.82
2022-08-26T11:55:24.135Z,4.00
2022-08-26T11:57:55.973Z,3.35
2022-08-26T12:00:28.070Z,3.60
2022-08-26T12:03:08.282Z,3.20
2022-08-26T12:05:39.922Z,6.43
2022-08-26T12:08:11.191Z,4.40
2022-08-26T12:10:40.557Z,3.00
2022-08-26T12:13:09.898Z,4.90
2022-08-26T12:15:38.951Z,4.05
2022-08-26T12:18:29.413Z,3.50
2022-08-26T12:21:01.641Z,3.75
2022-08-26T12:23:43.337Z,2.95
2022-08-26T12:26:19.922Z,6.18
2022-08-26T12:28:51.107Z,4.22
2022-08-26T12:31:26.911Z,3.30
2022-08-26T12:33:59.223Z,5.10
2022-08-26T12:36:32.617Z,5.13
2022-08-26T12:39:09.309Z,4.40
2022-08-26T12:41:47.307Z,5.15
2022-08-26T12:44:38.154Z,6.65
2022-08-26T12:47:10.152Z,5.13
2022-08-26T12:49:42.372Z,8.85
2022-08-26T12:52:30.122Z,6.20
2022-08-26T12:55:01.126Z,7.97
2022-08-26T12:57:32.335Z,6.75
2022-08-26T13:00:30.369Z,9.40
2022-08-26T13:02:59.578Z,5.68
2022-08-26T13:05:34.008Z,7.78
2022-08-26T13:08:12.049Z,9.63
2022-08-26T13:10:42.334Z,7.72
2022-08-26T13:13:11.162Z,9.68
2022-08-26T13:15:39.878Z,6.63
2022-08-26T13:18:08.338Z,6.00
2022-08-26T13:20:44.115Z,7.85
2022-08-26T13:23:12.981Z,7.20
2022-08-26T13:25:41.862Z,5.97
2022-08-26T13:28:10.380Z,6.88
2022-08-26T13:30:39.344Z,5.78
2022-08-26T13:33:09.645Z,6.05
2022-08-26T13:35:42.148Z,6.43
2022-08-26T13:38:30.892Z,5.50
2022-08-26T13:41:02.738Z,7.57
2022-08-26T13:43:31.865Z,6.43
2022-08-26T13:46:01.598Z,5.10
2022-08-26T13:48:30.249Z,7.70
2022-08-26T13:51:00.189Z,8.15
2022-08-26T13:53:29.536Z,6.32
2022-08-26T13:55:58.150Z,8.75
2022-08-26T13:58:27.135Z,7.93
2022-08-26T14:00:56.367Z,7.05
2022-08-26T14:03:26.001Z,12.00
2022-08-26T14:05:55.109Z,8.85
2022-08-26T14:08:25.337Z,10.05
2022-08-26T14:10:53.998Z,9.13
2022-08-26T14:13:22.662Z,9.02
2022-08-26T14:15:51.687Z,9.13
2022-08-26T14:18:24.128Z,11.25
2022-08-26T14:20:55.184Z,11.52
2022-08-26T14:23:25.849Z,11.05
2022-08-26T14:25:55.317Z,9.43
2022-08-26T14:28:23.760Z,8.43
2022-08-26T14:30:55.328Z,9.45
2022-08-26T14:33:26.822Z,9.98
2022-08-26T14:36:15.675Z,10.00
2022-08-26T14:38:45.538Z,9.20
2022-08-26T14:41:15.132Z,12.57
2022-08-26T14:43:49.467Z,11.40
2022-08-26T14:46:18.795Z,13.30
2022-08-26T14:48:47.357Z,12.43
2022-08-26T14:51:15.925Z,14.23
2022-08-26T14:54:03.300Z,12.30
2022-08-26T14:56:32.558Z,10.88
2022-08-26T14:59:01.420Z,10.50
2022-08-26T15:01:31.109Z,9.55
2022-08-26T15:04:00.267Z,10.93
2022-08-26T15:06:29.627Z,9.68
2022-08-26T15:08:59.931Z,9.85
2022-08-26T15:11:28.712Z,8.85
2022-08-26T15:13:57.427Z,12.57
2022-08-26T15:16:26.046Z,13.65
2022-08-26T15:18:54.831Z,12.18
2022-08-26T15:21:23.911Z,10.27
2022-08-26T15:23:53.804Z,13.63
2022-08-26T15:26:24.307Z,10.73
2022-08-26T15:28:53.302Z,10.38
2022-08-26T15:31:31.127Z,10.73
2022-08-26T15:34:00.691Z,10.38
2022-08-26T15:36:29.582Z,10.55
2022-08-26T15:38:59.179Z,10.30
2022-08-26T15:41:29.563Z,11.65
2022-08-26T15:43:58.473Z,10.35
2022-08-26T15:46:27.148Z,11.77
2022-08-26T15:48:55.663Z,9.50
2022-08-26T15:51:26.884Z,13.73
2022-08-26T15:53:56.956Z,10.63
2022-08-26T15:56:26.394Z,9.82
2022-08-26T15:58:57.664Z,9.65
2022-08-26T16:01:29.693Z,8.98
2022-08-26T16:03:58.727Z,9.35
2022-08-26T16:06:29.402Z,7.80
2022-08-26T16:08:58.294Z,9.35
2022-08-26T16:11:28.572Z,8.98
2022-08-26T16:13:58.970Z,7.80
2022-08-26T16:16:27.496Z,12.30
2022-08-26T16:18:56.086Z,10.43
2022-08-26T16:21:28.753Z,6.57
2022-08-26T16:23:58.376Z,7.32
2022-08-26T16:26:29.065Z,6.53
2022-08-26T16:28:59.226Z,8.15
2022-08-26T16:31:27.740Z,6.93
2022-08-26T16:33:56.605Z,8.27
2022-08-26T16:36:25.263Z,6.63
2022-08-26T16:38:56.450Z,7.65
2022-08-26T16:41:26.183Z,7.43
2022-08-26T16:43:55.022Z,7.65
2022-08-26T16:46:26.784Z,8.23
2022-08-26T16:48:59.435Z,7.68
2022-08-26T16:51:29.326Z,6.68
2022-08-26T16:53:58.959Z,7.45
2022-08-26T16:56:33.808Z,6.70
2022-08-26T16:59:04.243Z,7.30
2022-08-26T17:01:34.380Z,8.77
2022-08-26T17:04:03.132Z,7.38
2022-08-26T17:06:31.807Z,8.07
2022-08-26T17:09:00.353Z,6.43
2022-08-26T17:11:28.839Z,6.25
2022-08-26T17:13:57.683Z,7.47
2022-08-26T17:16:27.135Z,8.75
2022-08-26T17:18:58.171Z,7.75
2022-08-26T17:21:27.997Z,7.07
2022-08-26T17:23:56.663Z,10.70
2022-08-26T17:26:25.249Z,6.80
2022-08-26T17:28:53.739Z,6.03
2022-08-26T17:31:23.463Z,7.90
2022-08-26T17:33:53.570Z,7.07
2022-08-26T17:36:27.893Z,13.80
2022-08-26T17:38:58.067Z,8.18
2022-08-26T17:41:27.066Z,6.32
2022-08-26T17:43:55.614Z,6.40
2022-08-26T17:46:24.500Z,7.15
2022-08-26T17:48:53.105Z,6.22
2022-08-26T17:51:23.637Z,8.23
2022-08-26T17:53:53.009Z,6.85
2022-08-26T17:56:25.598Z,6.90
2022-08-26T17:58:55.387Z,6.10
2022-08-26T18:01:27.601Z,6.63
2022-08-26T18:04:00.340Z,6.32
2022-08-26T18:06:32.443Z,5.13
2022-08-26T18:09:01.632Z,5.80
2022-08-26T18:11:31.399Z,5.63
2022-08-26T18:14:00.889Z,5.28
2022-08-26T18:16:34.175Z,5.90
2022-08-26T18:19:02.675Z,5.82
2022-08-26T18:21:32.818Z,5.80
2022-08-26T18:24:01.941Z,6.00
2022-08-26T18:26:32.552Z,6.45
2022-08-26T18:29:02.088Z,6.95
2022-08-26T18:31:31.487Z,5.97
2022-08-26T18:34:01.436Z,5.80
2022-08-26T18:36:35.154Z,6.57
2022-08-26T18:39:05.062Z,5.65
2022-08-26T18:41:35.910Z,6.03
2022-08-26T18:44:05.232Z,5.95
2022-08-26T18:46:33.785Z,5.32
2022-08-26T18:49:02.230Z,5.78
2022-08-26T18:51:33.079Z,6.38
2022-08-26T18:54:05.990Z,5.68
2022-08-26T18:56:34.851Z,5.95
2022-08-26T18:59:04.524Z,5.25
2022-08-26T19:01:34.551Z,5.00
2022-08-26T19:04:05.192Z,5.13
2022-08-26T19:06:35.577Z,5.18
2022-08-26T19:09:07.415Z,5.25
2022-08-26T19:11:42.311Z,5.03
2022-08-26T19:14:14.276Z,4.80
2022-08-26T19:16:44.861Z,4.93
2022-08-26T19:19:13.632Z,5.45
2022-08-26T19:21:42.608Z,4.90
2022-08-26T19:24:15.704Z,4.80
2022-08-26T19:26:45.501Z,5.00
2022-08-26T19:29:15.323Z,5.13
2022-08-26T19:31:44.696Z,5.05
2022-08-26T19:34:20.864Z,6.10
2022-08-26T19:36:50.197Z,6.20
2022-08-26T19:39:20.208Z,6.80
2022-08-26T19:41:48.822Z,9.70
2022-08-26T19:44:51.287Z,7.47
2022-08-26T19:47:19.787Z,10.55
2022-08-26T19:49:48.356Z,18.38
2022-08-26T19:52:17.178Z,8.70
2022-08-26T19:54:47.761Z,9.90
2022-08-26T19:57:16.335Z,10.77
2022-08-26T19:59:45.398Z,10.48
2022-08-26T20:02:14.891Z,10.52
2022-08-26T20:04:44.171Z,10.18
2022-08-26T20:07:18.573Z,11.57
2022-08-26T20:09:49.619Z,11.02
2022-08-26T20:12:18.771Z,10.45
2022-08-26T20:14:47.599Z,12.35
2022-08-26T20:17:17.395Z,10.27
2022-08-26T20:20:03.185Z,11.05
2022-08-26T20:22:32.477Z,11.23
2022-08-26T20:25:02.467Z,12.27
2022-08-26T20:27:38.442Z,10.70
2022-08-26T20:30:09.830Z,11.70
2022-08-26T20:32:38.937Z,11.35
2022-08-26T20:35:10.284Z,12.80
2022-08-26T20:37:40.012Z,11.90
2022-08-26T20:40:12.177Z,11.13
2022-08-26T20:42:41.171Z,11.65
2022-08-26T20:45:10.853Z,12.95
2022-08-26T20:47:39.361Z,11.82
2022-08-26T20:50:09.487Z,11.52
2022-08-26T20:52:38.009Z,11.93
2022-08-26T20:55:07.534Z,12.48
2022-08-26T20:57:37.445Z,13.43
2022-08-26T21:00:07.675Z,14.55
2022-08-26T21:02:37.010Z,16.48
2022-08-26T21:05:06.889Z,18.25
2022-08-26T21:07:36.113Z,14.80
2022-08-26T21:10:04.865Z,13.70
2022-08-26T21:12:33.362Z,17.40
2022-08-26T21:15:03.343Z,14.88
2022-08-26T21:17:31.989Z,13.73
2022-08-26T21:20:00.542Z,14.30
2022-08-26T21:22:30.056Z,15.43
2022-08-26T21:24:58.699Z,14.65
2022-08-26T21:27:27.296Z,15.27
2022-08-26T21:29:56.654Z,14.38
2022-08-26T21:32:26.615Z,15.13
2022-08-26T21:34:56.903Z,15.13
2022-08-26T21:37:27.082Z,15.05
2022-08-26T21:39:56.153Z,15.13
2022-08-26T21:42:26.660Z,16.40
2022-08-26T21:44:55.447Z,16.80
2022-08-26T21:47:24.482Z,16.42
2022-08-26T21:49:55.376Z,15.20
2022-08-26T21:52:23.888Z,16.40
2022-08-26T21:54:52.452Z,17.20
2022-08-26T21:57:21.035Z,17.05
2022-08-26T21:59:50.184Z,17.13
2022-08-26T22:02:18.755Z,17.15
2022-08-26T22:04:48.981Z,18.77
2022-08-26T22:07:21.367Z,16.40
2022-08-26T22:09:50.315Z,18.60
2022-08-26T22:12:19.247Z,15.93
2022-08-26T22:14:48.249Z,17.90
2022-08-26T22:17:17.282Z,16.50
2022-08-26T22:19:46.729Z,15.40
2022-08-26T22:22:16.015Z,16.43
2022-08-26T22:24:45.946Z,17.40
2022-08-26T22:27:15.006Z,16.42
2022-08-26T22:29:43.602Z,20.48
2022-08-26T22:32:12.111Z,15.82
2022-08-26T22:34:41.955Z,16.92
2022-08-26T22:37:10.599Z,18.17
2022-08-26T22:39:39.663Z,18.17
2022-08-26T22:42:09.453Z,17.15
2022-08-26T22:44:38.132Z,18.45
2022-08-26T22:47:07.439Z,20.48
2022-08-26T22:49:35.905Z,18.55
2022-08-26T22:52:04.738Z,18.38
2022-08-26T22:54:33.176Z,17.05
2022-08-26T22:57:01.813Z,19.08
2022-08-26T22:59:32.166Z,18.73
2022-08-26T23:02:00.780Z,19.10
2022-08-26T23:04:29.344Z,18.80
2022-08-26T23:06:58.113Z,19.88
2022-08-26T23:09:26.614Z,21.33
2022-08-26T23:11:56.002Z,22.57
2022-08-26T23:14:26.197Z,21.25
2022-08-26T23:16:56.166Z,21.38
2022-08-26T23:19:24.705Z,19.95
2022-08-26T23:21:53.221Z,22.65
2022-08-26T23:24:22.300Z,20.50
2022-08-26T23:26:50.874Z,22.15
2022-08-26T23:29:19.462Z,23.60
2022-08-26T23:31:47.935Z,22.73
2022-08-26T23:34:35.635Z,26.70
2022-08-26T23:37:06.672Z,24.08
2022-08-26T23:39:36.271Z,23.47
2022-08-26T23:42:06.811Z,25.67
2022-08-26T23:44:35.760Z,21.57
2022-08-26T23:47:05.346Z,23.30
2022-08-26T23:49:36.798Z,25.20
2022-08-26T23:52:26.801Z,22.93
2022-08-26T23:54:55.537Z,23.03
2022-08-26T23:57:25.661Z,24.27
2022-08-26T23:59:54.402Z,22.20
